createdAt,value
2019-03-10T11:52:14.456Z,23.28
2019-03-10T11:55:21.278Z,23.00
2019-03-10T11:58:01.540Z,23.71
2019-03-10T12:01:12.730Z,24.96
2019-03-10T12:04:10.321Z,24.31
2019-03-10T12:06:47.041Z,23.86
2019-03-10T15:05:58.467Z,26.58
2019-03-10T15:08:33.074Z,25.10
2019-03-10T15:11:07.970Z,24.21
2019-03-10T15:13:41.004Z,23.63
2019-03-10T15:16:14.168Z,23.25
2019-03-10T15:18:50.932Z,22.94
2019-03-10T15:21:30.860Z,22.69
2019-03-10T15:25:37.338Z,22.75
2019-03-10T15:28:18.238Z,21.96
2019-03-10T15:32:04.832Z,20.77
2019-03-10T15:34:48.442Z,19.84
2019-03-10T15:37:22.251Z,18.97
2019-03-10T15:40:06.667Z,18.14
2019-03-10T15:42:50.588Z,17.34
2019-03-10T15:45:27.904Z,16.60
2019-03-10T15:48:03.199Z,15.93
2019-03-10T15:50:42.096Z,15.35
2019-03-10T15:53:32.271Z,14.82
2019-03-10T15:56:07.498Z,14.24
2019-03-10T15:58:42.095Z,13.75
2019-03-10T16:01:17.909Z,13.28
2019-03-10T16:03:51.768Z,12.83
2019-03-10T16:06:35.091Z,12.44
2019-03-10T16:09:17.015Z,12.00
2019-03-10T16:11:51.115Z,11.66
2019-03-10T16:14:24.599Z,11.31
2019-03-10T16:16:59.233Z,11.01
2019-03-10T16:19:37.775Z,10.73
2019-03-10T16:22:14.082Z,10.44
2019-03-10T16:24:58.164Z,10.20
2019-03-10T16:27:49.671Z,9.94
2019-03-10T16:30:44.765Z,9.70
2019-03-10T16:33:22.570Z,9.46
2019-03-10T16:35:58.871Z,9.24
2019-03-10T16:38:53.397Z,12.45
2019-03-10T16:41:30.119Z,17.48
2019-03-10T16:44:05.407Z,16.97
2019-03-10T16:46:44.465Z,15.11
2019-03-10T16:49:21.293Z,13.77
2019-03-10T16:52:01.995Z,12.88
2019-03-10T16:54:59.213Z,12.25
2019-03-10T16:57:35.052Z,11.69
2019-03-10T17:00:11.824Z,11.27
2019-03-10T17:02:47.813Z,10.87
2019-03-10T17:05:24.847Z,10.55
2019-03-10T17:08:20.143Z,10.23
2019-03-10T17:18:02.492Z,9.15
2019-03-10T17:20:39.120Z,12.99
2019-03-10T17:39:49.005Z,11.15
2019-03-10T17:42:30.024Z,10.68
2019-03-10T17:45:07.882Z,10.28
2019-03-10T17:47:43.861Z,9.93
2019-03-10T17:50:18.625Z,9.58
2019-03-10T17:52:54.899Z,9.27
2019-03-10T17:55:30.778Z,8.97
2019-03-10T17:58:05.372Z,11.93
2019-03-10T18:00:39.429Z,16.45
2019-03-10T18:03:13.424Z,16.03
2019-03-10T18:05:47.983Z,14.15
2019-03-10T18:08:21.981Z,12.83
2019-03-10T18:10:55.717Z,11.96
2019-03-10T18:13:29.422Z,11.29
2019-03-10T18:16:03.108Z,10.75
2019-03-10T18:18:37.178Z,10.28
2019-03-10T18:21:10.472Z,9.90
2019-03-10T18:23:43.726Z,9.53
2019-03-10T18:26:16.936Z,9.20
2019-03-10T18:28:50.257Z,8.89
2019-03-10T18:31:23.838Z,12.11
2019-03-10T18:33:57.088Z,16.31
2019-03-10T18:36:30.415Z,15.38
2019-03-10T18:39:03.831Z,13.65
2019-03-10T18:41:38.488Z,12.39
2019-03-10T18:44:11.637Z,11.58
2019-03-10T18:46:44.900Z,10.97
2019-03-10T18:49:18.221Z,10.48
2019-03-10T18:51:51.494Z,10.04
2019-03-10T18:54:24.731Z,9.66
2019-03-10T18:56:57.930Z,12.53
2019-03-10T18:59:31.326Z,16.87
2019-03-10T19:02:04.650Z,16.17
2019-03-10T19:04:37.937Z,14.32
2019-03-10T19:07:14.376Z,13.04
2019-03-10T19:09:47.794Z,12.17
2019-03-10T19:12:25.784Z,11.51
2019-03-10T19:15:00.351Z,11.01
2019-03-10T19:17:34.734Z,10.56
2019-03-10T19:20:09.209Z,10.16
2019-03-10T19:22:43.056Z,9.79
2019-03-10T19:25:16.412Z,9.46
2019-03-10T19:27:56.454Z,12.46
2019-03-10T19:30:30.216Z,16.52
2019-03-10T19:33:03.615Z,15.27
2019-03-10T19:35:37.290Z,13.56
2019-03-10T19:38:11.331Z,12.44
2019-03-10T19:40:44.684Z,11.62
2019-03-10T19:43:18.156Z,11.01
2019-03-10T19:45:51.571Z,10.49
2019-03-10T19:48:25.265Z,10.06
2019-03-10T19:50:59.381Z,9.65
2019-03-10T19:53:32.864Z,9.30
2019-03-10T19:56:06.309Z,12.42
2019-03-10T19:58:39.685Z,16.76
2019-03-10T20:01:13.110Z,16.20
2019-03-10T20:03:46.540Z,14.28
2019-03-10T20:06:19.733Z,12.99
2019-03-10T20:08:54.607Z,12.04
2019-03-10T20:11:27.933Z,11.37
2019-03-10T20:14:02.695Z,10.82
2019-03-10T20:16:35.855Z,10.31
2019-03-10T20:19:09.095Z,9.85
2019-03-10T20:21:43.635Z,9.43
2019-03-10T20:24:16.892Z,12.24
2019-03-10T20:26:50.228Z,15.21
2019-03-10T20:29:23.639Z,13.72
2019-03-10T20:31:56.830Z,12.24
2019-03-10T20:34:30.067Z,11.28
2019-03-10T20:37:03.382Z,10.62
2019-03-10T20:39:37.769Z,10.00
2019-03-10T20:42:12.203Z,9.53
2019-03-10T20:44:45.775Z,9.11
2019-03-10T20:47:20.256Z,12.32
2019-03-10T20:49:53.652Z,13.76
2019-03-10T20:52:27.428Z,12.34
2019-03-10T20:55:00.848Z,11.19
2019-03-10T20:57:35.458Z,10.35
2019-03-10T21:00:31.852Z,9.78
2019-03-10T21:03:08.830Z,9.23
2019-03-10T21:05:42.252Z,8.79
2019-03-10T21:08:15.714Z,8.40
2019-03-10T21:10:49.176Z,11.39
2019-03-10T21:13:22.632Z,12.67
2019-03-10T21:15:56.158Z,11.17
2019-03-10T21:18:29.620Z,10.16
2019-03-10T21:21:03.164Z,9.38
2019-03-10T21:23:36.688Z,8.79
2019-03-10T21:26:10.188Z,8.35
2019-03-10T21:28:43.726Z,7.92
2019-03-10T21:31:18.330Z,7.54
2019-03-10T21:33:51.894Z,7.24
2019-03-10T21:36:26.027Z,10.23
2019-03-10T21:39:08.717Z,14.65
2019-03-10T21:41:42.876Z,14.13
2019-03-10T21:44:26.059Z,12.24
2019-03-10T21:46:52.064Z,10.90
2019-03-10T21:49:25.657Z,10.00
2019-03-10T21:51:59.113Z,9.31
2019-03-10T21:54:33.435Z,8.73
2019-03-10T21:57:07.003Z,8.25
2019-03-10T21:59:40.162Z,7.79
2019-03-10T22:02:13.371Z,7.44
2019-03-10T22:04:47.093Z,7.09
2019-03-10T22:07:20.606Z,6.75
2019-03-10T22:09:54.143Z,9.74
2019-03-10T22:12:27.851Z,13.42
2019-03-10T22:15:01.512Z,12.13
2019-03-10T22:17:36.353Z,10.59
2019-03-10T22:20:15.406Z,9.52
2019-03-10T22:22:50.030Z,8.77
2019-03-10T22:25:26.940Z,8.21
2019-03-10T22:28:00.382Z,7.75
2019-03-10T22:30:33.758Z,7.35
2019-03-10T22:33:07.826Z,7.00
2019-03-10T22:35:43.207Z,6.65
2019-03-10T22:38:18.379Z,8.86
2019-03-10T22:40:52.609Z,13.45
2019-03-10T22:43:26.216Z,12.92
2019-03-10T22:46:00.270Z,11.21
2019-03-10T22:48:34.358Z,9.96
2019-03-10T22:51:12.451Z,9.13
2019-03-10T22:53:53.904Z,8.44
2019-03-10T22:56:27.939Z,7.93
2019-03-10T22:59:01.432Z,7.51
2019-03-10T23:01:36.151Z,7.11
2019-03-10T23:04:09.737Z,6.72
2019-03-10T23:06:43.415Z,6.41
2019-03-10T23:09:16.949Z,9.34
2019-03-10T23:11:55.010Z,13.90
2019-03-10T23:14:28.686Z,13.17
2019-03-10T23:17:02.174Z,11.31
2019-03-10T23:19:35.717Z,10.01
2019-03-10T23:22:09.502Z,9.14
2019-03-10T23:24:42.962Z,8.44
2019-03-10T23:27:17.501Z,7.90
2019-03-10T23:29:51.630Z,7.44
2019-03-10T23:32:26.533Z,7.04
2019-03-10T23:35:00.346Z,6.68
2019-03-10T23:37:33.775Z,6.34
2019-03-10T23:40:08.615Z,9.38
2019-03-10T23:42:42.521Z,14.01
2019-03-10T23:45:16.360Z,13.45
2019-03-10T23:47:49.673Z,11.62
2019-03-10T23:50:22.833Z,10.27
2019-03-10T23:52:56.008Z,9.38
2019-03-10T23:55:29.510Z,8.69
2019-03-10T23:58:03.017Z,8.16
